createdAt,value
2024-01-30T00:00:02.692Z,7.90
2024-01-30T00:02:32.866Z,8.00
2024-01-30T00:05:00.756Z,7.90
2024-01-30T00:07:29.026Z,7.90
2024-01-30T00:09:57.108Z,7.90
2024-01-30T00:12:25.079Z,7.90
2024-01-30T00:14:55.381Z,7.90
2024-01-30T00:17:27.379Z,7.90
2024-01-30T00:19:55.497Z,7.90
2024-01-30T00:22:23.487Z,7.90
2024-01-30T00:24:51.537Z,7.90
2024-01-30T00:27:19.500Z,7.90
2024-01-30T00:29:47.359Z,7.80
2024-01-30T00:32:16.741Z,7.90
2024-01-30T00:34:44.883Z,7.90
2024-01-30T00:37:12.907Z,7.80
2024-01-30T00:39:40.851Z,7.80
2024-01-30T00:42:08.981Z,7.80
2024-01-30T00:44:38.277Z,7.90
2024-01-30T00:47:06.415Z,7.90
2024-01-30T00:49:35.924Z,7.90
2024-01-30T00:52:06.800Z,7.80
2024-01-30T00:54:34.742Z,7.80
2024-01-30T00:57:02.627Z,7.80
2024-01-30T00:59:32.998Z,7.80
2024-01-30T01:02:01.243Z,7.80
2024-01-30T01:04:29.327Z,7.80
2024-01-30T01:07:00.858Z,7.70
2024-01-30T01:09:28.930Z,7.70
2024-01-30T01:11:56.835Z,7.70
2024-01-30T01:14:24.836Z,7.70
2024-01-30T01:16:52.784Z,7.70
2024-01-30T01:19:20.751Z,7.80
2024-01-30T01:21:48.793Z,7.80
2024-01-30T01:24:18.170Z,7.80
2024-01-30T01:26:46.106Z,7.70
2024-01-30T01:29:14.292Z,7.70
2024-01-30T01:31:44.839Z,7.70
2024-01-30T01:34:15.686Z,7.70
2024-01-30T01:36:43.722Z,7.60
2024-01-30T01:39:11.785Z,7.60
2024-01-30T01:41:41.084Z,7.60
2024-01-30T01:44:11.584Z,7.60
2024-01-30T01:46:39.533Z,7.60
2024-01-30T01:49:08.028Z,7.60
2024-01-30T01:51:37.665Z,7.60
2024-01-30T01:54:06.755Z,7.60
2024-01-30T01:56:35.415Z,7.50
2024-01-30T01:59:06.967Z,7.50
2024-01-30T02:01:35.209Z,7.50
2024-01-30T02:04:03.201Z,7.50
2024-01-30T02:06:31.250Z,7.60
2024-01-30T02:08:59.192Z,7.50
2024-01-30T02:11:29.875Z,7.50
2024-01-30T02:13:57.787Z,7.50
2024-01-30T02:16:28.568Z,7.50
2024-01-30T02:18:56.679Z,7.50
2024-01-30T02:21:28.735Z,7.50
2024-01-30T02:23:56.921Z,7.50
2024-01-30T02:26:24.984Z,7.50
2024-01-30T02:28:52.916Z,7.50
2024-01-30T02:31:20.926Z,7.50
2024-01-30T02:33:48.920Z,7.50
2024-01-30T02:36:17.691Z,7.50
2024-01-30T02:38:47.609Z,7.50
2024-01-30T02:41:15.729Z,7.50
2024-01-30T02:43:45.992Z,7.40
2024-01-30T02:46:14.010Z,7.40
2024-01-30T02:48:42.117Z,7.40
2024-01-30T02:51:10.092Z,7.40
2024-01-30T02:53:38.045Z,7.40
2024-01-30T02:56:10.794Z,7.40
2024-01-30T02:58:38.738Z,7.40
2024-01-30T03:01:06.813Z,7.40
2024-01-30T03:03:36.409Z,7.40
2024-01-30T03:06:04.595Z,7.40
2024-01-30T03:08:32.706Z,7.40
2024-01-30T03:11:00.652Z,7.30
2024-01-30T03:13:30.454Z,7.40
2024-01-30T03:15:58.389Z,7.40
2024-01-30T03:18:28.717Z,7.30
2024-01-30T03:20:56.637Z,7.30
2024-01-30T03:23:24.602Z,7.30
2024-01-30T03:25:52.524Z,7.30
2024-01-30T03:28:20.605Z,7.30
2024-01-30T03:30:49.980Z,7.30
2024-01-30T03:33:18.016Z,7.30
2024-01-30T03:35:46.130Z,7.30
2024-01-30T03:38:14.036Z,7.30
2024-01-30T03:40:41.992Z,7.20
2024-01-30T03:43:09.952Z,7.20
2024-01-30T03:45:37.866Z,7.20
2024-01-30T03:48:09.894Z,7.20
2024-01-30T03:50:37.783Z,7.20
2024-01-30T03:53:05.896Z,7.30
2024-01-30T03:55:33.802Z,7.30
2024-01-30T03:58:01.762Z,7.30
2024-01-30T04:00:29.723Z,7.30
2024-01-30T04:02:57.706Z,7.30
2024-01-30T04:05:28.106Z,7.30
2024-01-30T04:07:56.065Z,7.20
2024-01-30T04:10:24.122Z,7.20
2024-01-30T04:12:52.703Z,7.20
2024-01-30T04:15:22.697Z,7.20
2024-01-30T04:17:50.650Z,7.20
2024-01-30T04:20:20.890Z,7.20
2024-01-30T04:22:50.197Z,7.20
2024-01-30T04:25:18.151Z,7.20
2024-01-30T04:27:46.159Z,7.20
2024-01-30T04:30:14.187Z,7.10
2024-01-30T04:32:42.198Z,7.20
2024-01-30T04:35:11.941Z,7.20
2024-01-30T04:37:40.367Z,7.20
2024-01-30T04:40:10.696Z,7.10
2024-01-30T04:42:40.969Z,7.10
2024-01-30T04:45:09.269Z,7.10
2024-01-30T04:47:37.262Z,7.10
2024-01-30T04:50:08.356Z,7.20
2024-01-30T04:52:36.343Z,7.10
2024-01-30T04:55:07.136Z,7.10
2024-01-30T04:57:36.553Z,7.10
2024-01-30T05:00:06.412Z,7.10
2024-01-30T05:02:34.424Z,7.00
2024-01-30T05:05:02.558Z,7.00
2024-01-30T05:07:30.614Z,7.10
2024-01-30T05:09:59.644Z,7.10
2024-01-30T05:12:28.506Z,7.10
2024-01-30T05:14:57.818Z,7.10
2024-01-30T05:17:27.966Z,7.20
2024-01-30T05:19:55.994Z,7.20
2024-01-30T05:22:24.064Z,7.20
2024-01-30T05:24:54.340Z,7.30
2024-01-30T05:27:22.344Z,7.30
2024-01-30T05:29:50.920Z,7.20
2024-01-30T05:32:22.665Z,7.20
2024-01-30T05:34:51.553Z,7.20
2024-01-30T05:37:19.704Z,7.20
2024-01-30T05:39:47.699Z,7.20
2024-01-30T05:42:16.075Z,7.20
2024-01-30T05:44:43.998Z,7.20
2024-01-30T05:47:11.930Z,7.20
2024-01-30T05:49:41.226Z,7.20
2024-01-30T05:52:09.242Z,7.10
2024-01-30T05:54:37.203Z,7.10
2024-01-30T05:57:05.253Z,7.10
2024-01-30T05:59:33.191Z,7.10
2024-01-30T06:02:01.340Z,7.10
2024-01-30T06:04:31.939Z,7.10
2024-01-30T06:07:04.075Z,7.10
2024-01-30T06:09:32.070Z,7.10
2024-01-30T06:12:02.355Z,7.10
2024-01-30T06:14:30.345Z,7.20
2024-01-30T06:16:58.332Z,7.20
2024-01-30T06:19:28.544Z,7.20
2024-01-30T06:21:56.707Z,7.10
2024-01-30T06:24:26.049Z,7.20
2024-01-30T06:26:54.040Z,7.20
2024-01-30T06:29:22.016Z,7.10
2024-01-30T06:31:49.924Z,7.10
2024-01-30T06:34:17.985Z,7.20
2024-01-30T06:36:45.952Z,7.20
2024-01-30T06:39:16.125Z,7.20
2024-01-30T06:41:48.541Z,7.20
2024-01-30T06:44:16.598Z,7.20
2024-01-30T06:46:44.545Z,7.20
2024-01-30T06:49:12.588Z,7.10
2024-01-30T06:51:40.504Z,7.00
2024-01-30T06:54:10.830Z,7.10
2024-01-30T06:56:38.884Z,7.10
2024-01-30T06:59:09.622Z,7.10
2024-01-30T07:01:37.620Z,7.10
2024-01-30T07:04:06.128Z,7.20
2024-01-30T07:06:36.472Z,7.20
2024-01-30T07:09:04.794Z,7.20
2024-01-30T07:11:33.318Z,7.20
2024-01-30T07:14:01.402Z,7.20
2024-01-30T07:16:30.837Z,7.20
2024-01-30T07:18:59.030Z,7.20
2024-01-30T07:21:29.350Z,7.10
2024-01-30T07:23:57.508Z,7.00
2024-01-30T07:26:25.575Z,7.10
2024-01-30T07:28:56.713Z,7.00
2024-01-30T07:31:24.984Z,7.00
2024-01-30T07:33:55.493Z,7.00
2024-01-30T07:36:23.442Z,6.90
2024-01-30T07:38:51.379Z,6.90
2024-01-30T07:41:19.245Z,6.90
2024-01-30T07:43:47.172Z,7.00
2024-01-30T07:46:15.122Z,6.90
2024-01-30T07:48:43.153Z,6.90
2024-01-30T07:51:12.624Z,7.00
2024-01-30T07:53:42.960Z,7.00
2024-01-30T07:56:13.091Z,7.00
2024-01-30T07:58:41.116Z,7.00
2024-01-30T08:01:11.591Z,7.10
2024-01-30T08:03:41.988Z,7.00
2024-01-30T08:06:14.480Z,7.00
2024-01-30T08:08:42.480Z,7.00
2024-01-30T08:11:10.413Z,7.00
2024-01-30T08:13:38.600Z,7.10
2024-01-30T08:16:07.133Z,7.20
2024-01-30T08:18:35.195Z,7.30
2024-01-30T08:21:03.335Z,7.30
2024-01-30T08:23:32.627Z,7.20
2024-01-30T08:26:00.775Z,7.30
2024-01-30T08:28:31.135Z,7.40
2024-01-30T08:30:59.197Z,7.50
2024-01-30T08:33:27.245Z,7.60
2024-01-30T08:35:55.234Z,7.60
2024-01-30T08:38:23.245Z,7.70
2024-01-30T08:40:52.834Z,7.70
2024-01-30T08:43:23.233Z,7.80
2024-01-30T08:45:51.258Z,7.80
2024-01-30T08:48:20.047Z,7.80
2024-01-30T08:50:48.112Z,7.90
2024-01-30T08:53:16.115Z,7.80
2024-01-30T08:55:44.201Z,7.90
2024-01-30T08:58:13.638Z,8.00
2024-01-30T09:00:41.857Z,7.90
2024-01-30T09:03:10.079Z,7.90
2024-01-30T09:05:38.045Z,7.90
2024-01-30T09:08:06.474Z,8.00
2024-01-30T09:10:34.532Z,8.10
2024-01-30T09:13:02.569Z,8.10
2024-01-30T09:15:31.822Z,8.10
2024-01-30T09:17:59.804Z,8.10
2024-01-30T09:20:28.233Z,8.10
2024-01-30T09:22:56.819Z,8.20
2024-01-30T09:25:24.805Z,8.30
2024-01-30T09:27:52.849Z,8.30
2024-01-30T09:30:23.549Z,8.40
2024-01-30T09:32:55.394Z,8.40
2024-01-30T09:35:23.501Z,8.50
2024-01-30T09:37:53.986Z,8.50
2024-01-30T09:40:22.023Z,8.50
2024-01-30T09:42:52.538Z,8.50
2024-01-30T09:45:20.756Z,8.50
2024-01-30T09:47:48.775Z,8.60
2024-01-30T09:50:18.596Z,8.70
2024-01-30T09:52:46.857Z,8.80
2024-01-30T09:55:15.087Z,8.80
2024-01-30T09:57:43.813Z,8.90
2024-01-30T10:00:14.704Z,8.90
2024-01-30T10:02:43.041Z,8.90
2024-01-30T10:05:11.400Z,8.90
2024-01-30T10:07:40.837Z,9.00
2024-01-30T10:10:09.329Z,9.10
2024-01-30T10:12:37.410Z,9.10
2024-01-30T10:15:05.691Z,9.10
2024-01-30T10:17:34.785Z,9.20
2024-01-30T10:20:06.502Z,9.20
2024-01-30T10:22:34.723Z,9.20
2024-01-30T10:25:06.373Z,9.30
2024-01-30T10:27:34.767Z,9.30
2024-01-30T10:30:05.609Z,9.30
2024-01-30T10:32:33.591Z,9.30
2024-01-30T10:35:02.167Z,9.30
2024-01-30T10:37:34.896Z,9.40
2024-01-30T10:40:07.031Z,9.40
2024-01-30T10:42:38.936Z,9.50
2024-01-30T10:45:09.417Z,9.50
2024-01-30T10:47:38.399Z,9.60
2024-01-30T10:50:07.144Z,9.60
2024-01-30T10:52:38.145Z,9.60
2024-01-30T10:55:08.550Z,9.60
2024-01-30T10:57:37.128Z,9.60
2024-01-30T11:00:11.019Z,9.60
2024-01-30T11:02:39.892Z,9.70
2024-01-30T11:05:10.715Z,9.60
2024-01-30T11:07:40.715Z,9.60
2024-01-30T11:10:14.339Z,9.70
2024-01-30T11:12:44.665Z,9.70
2024-01-30T11:15:16.081Z,9.70
2024-01-30T11:17:44.786Z,9.60
2024-01-30T11:20:15.475Z,9.70
2024-01-30T11:22:45.009Z,9.70
2024-01-30T11:25:18.103Z,9.70
2024-01-30T11:27:49.005Z,9.70
2024-01-30T11:30:24.241Z,9.80
2024-01-30T11:33:02.474Z,9.80
2024-01-30T11:35:34.481Z,9.80
2024-01-30T11:38:02.923Z,9.90
2024-01-30T11:40:33.160Z,9.90
2024-01-30T11:43:02.137Z,9.90
2024-01-30T11:45:30.419Z,9.90
2024-01-30T11:47:58.784Z,9.90
2024-01-30T11:50:26.917Z,9.80
2024-01-30T11:52:56.059Z,9.80
2024-01-30T11:55:24.060Z,9.80
2024-01-30T11:57:57.242Z,9.90
2024-01-30T12:00:25.235Z,9.90
2024-01-30T12:02:56.531Z,9.90
2024-01-30T12:05:27.015Z,9.90
2024-01-30T12:07:55.362Z,10.00
2024-01-30T12:10:23.539Z,10.00
2024-01-30T12:12:55.971Z,10.00
2024-01-30T12:15:24.384Z,10.00
2024-01-30T12:17:54.500Z,10.10
2024-01-30T12:20:24.514Z,10.20
2024-01-30T12:22:52.760Z,10.20
2024-01-30T12:25:24.325Z,10.20
2024-01-30T12:27:53.064Z,10.20
2024-01-30T12:30:25.055Z,10.20
2024-01-30T12:32:55.269Z,10.20
2024-01-30T12:35:23.596Z,10.20
2024-01-30T12:37:51.730Z,10.20
2024-01-30T12:40:22.523Z,10.20
2024-01-30T12:42:51.204Z,10.20
2024-01-30T12:45:24.010Z,10.20
2024-01-30T12:47:54.026Z,10.20
2024-01-30T12:50:22.283Z,10.30
2024-01-30T12:52:50.599Z,10.30
2024-01-30T12:55:18.990Z,10.30
2024-01-30T12:57:47.517Z,10.30
2024-01-30T13:00:18.085Z,10.30
2024-01-30T13:02:46.319Z,10.30
2024-01-30T13:05:15.916Z,10.30
2024-01-30T13:07:45.419Z,10.30
2024-01-30T13:10:15.543Z,10.30
2024-01-30T13:12:43.560Z,10.40
2024-01-30T13:15:12.448Z,10.30
2024-01-30T13:17:40.533Z,10.30
2024-01-30T13:20:12.060Z,10.30
2024-01-30T13:22:42.155Z,10.40
2024-01-30T13:25:10.408Z,10.50
2024-01-30T13:27:39.515Z,10.50
2024-01-30T13:30:09.157Z,10.50
2024-01-30T13:32:37.187Z,10.40
2024-01-30T13:35:05.473Z,10.50
2024-01-30T13:37:33.673Z,10.50
2024-01-30T13:40:09.693Z,10.50
2024-01-30T13:42:40.061Z,10.50
2024-01-30T13:45:10.842Z,10.50
2024-01-30T13:47:39.109Z,10.50
2024-01-30T13:50:07.687Z,10.50
2024-01-30T13:52:41.645Z,10.50
2024-01-30T13:55:14.627Z,10.50
2024-01-30T13:57:42.704Z,10.40
2024-01-30T14:00:11.244Z,10.40
2024-01-30T14:02:42.158Z,10.50
2024-01-30T14:05:10.800Z,10.50
2024-01-30T14:07:40.514Z,10.50
2024-01-30T14:10:11.652Z,10.50
2024-01-30T14:12:43.691Z,10.50
2024-01-30T14:15:19.782Z,10.50
2024-01-30T14:17:55.670Z,10.50
2024-01-30T14:20:23.908Z,10.50
2024-01-30T14:22:52.584Z,10.40
2024-01-30T14:25:21.320Z,10.40
2024-01-30T14:27:50.720Z,10.40
2024-01-30T14:30:19.235Z,10.40
2024-01-30T14:32:48.144Z,10.50
2024-01-30T14:35:16.530Z,10.50
2024-01-30T14:37:44.597Z,10.50
2024-01-30T14:40:12.730Z,10.50
2024-01-30T14:42:40.872Z,10.50
2024-01-30T14:45:10.464Z,10.50
2024-01-30T14:47:38.831Z,10.50
2024-01-30T14:50:09.052Z,10.50
2024-01-30T14:52:37.855Z,10.50
2024-01-30T14:55:08.856Z,10.50
2024-01-30T14:57:38.822Z,10.50
2024-01-30T15:00:07.705Z,10.50
2024-01-30T15:02:37.260Z,10.50
2024-01-30T15:05:05.718Z,10.50
2024-01-30T15:07:39.683Z,10.50
2024-01-30T15:10:09.605Z,10.50
2024-01-30T15:12:37.870Z,10.50
2024-01-30T15:15:07.293Z,10.40
2024-01-30T15:17:35.460Z,10.40
2024-01-30T15:20:05.571Z,10.40
2024-01-30T15:22:33.786Z,10.40
2024-01-30T15:25:02.119Z,10.40
2024-01-30T15:27:32.135Z,10.40
2024-01-30T15:30:00.123Z,10.40
2024-01-30T15:32:28.089Z,10.40
2024-01-30T15:34:57.993Z,10.40
2024-01-30T15:37:27.768Z,10.30
2024-01-30T15:39:56.032Z,10.30
2024-01-30T15:42:24.117Z,10.30
2024-01-30T15:44:52.053Z,10.30
2024-01-30T15:47:20.043Z,10.30
2024-01-30T15:49:48.107Z,10.30
2024-01-30T15:52:18.357Z,10.30
2024-01-30T15:54:48.234Z,10.30
2024-01-30T15:57:16.188Z,10.30
2024-01-30T15:59:46.251Z,10.20
2024-01-30T16:02:15.415Z,10.20
2024-01-30T16:04:46.113Z,10.20
2024-01-30T16:07:14.107Z,10.20
2024-01-30T16:09:44.620Z,10.20
2024-01-30T16:12:14.021Z,10.20
2024-01-30T16:14:41.965Z,10.20
2024-01-30T16:17:09.937Z,10.20
2024-01-30T16:19:38.091Z,10.20
2024-01-30T16:22:06.318Z,10.10
2024-01-30T16:24:34.444Z,10.20
2024-01-30T16:27:02.430Z,10.20
2024-01-30T16:29:33.250Z,10.20
2024-01-30T16:32:01.955Z,10.20
2024-01-30T16:34:29.948Z,10.10
2024-01-30T16:36:58.160Z,10.10
2024-01-30T16:39:26.139Z,10.10
2024-01-30T16:41:55.177Z,10.10
2024-01-30T16:44:23.118Z,10.10
2024-01-30T16:46:52.931Z,10.10
2024-01-30T16:49:21.165Z,10.10
2024-01-30T16:51:49.132Z,10.10
2024-01-30T16:54:17.112Z,10.10
2024-01-30T16:56:48.932Z,10.10
2024-01-30T16:59:17.174Z,10.10
2024-01-30T17:01:45.787Z,10.10
2024-01-30T17:04:16.825Z,10.10
2024-01-30T17:06:44.860Z,10.10
2024-01-30T17:09:12.842Z,10.10
2024-01-30T17:11:40.886Z,10.00
2024-01-30T17:14:08.934Z,10.10
2024-01-30T17:16:37.374Z,10.10
2024-01-30T17:19:05.575Z,10.10
2024-01-30T17:21:35.556Z,10.10
2024-01-30T17:24:03.745Z,10.00
2024-01-30T17:26:32.251Z,10.00
2024-01-30T17:29:00.563Z,10.00
2024-01-30T17:31:28.546Z,10.10
2024-01-30T17:33:56.822Z,10.00
2024-01-30T17:36:27.120Z,10.00
2024-01-30T17:38:56.604Z,10.00
2024-01-30T17:41:24.527Z,10.00
2024-01-30T17:43:52.471Z,10.00
2024-01-30T17:46:20.441Z,10.00
2024-01-30T17:49:32.157Z,10.00
2024-01-30T17:52:00.249Z,10.00
2024-01-30T17:54:29.542Z,10.00
2024-01-30T17:56:57.565Z,10.00
2024-01-30T17:59:25.601Z,10.00
2024-01-30T18:01:53.558Z,9.90
2024-01-30T18:04:24.265Z,9.90
2024-01-30T18:06:52.679Z,9.90
2024-01-30T18:09:21.646Z,9.90
2024-01-30T18:11:50.911Z,10.00
2024-01-30T18:14:18.931Z,10.00
2024-01-30T18:16:46.941Z,10.00
2024-01-30T18:19:15.087Z,10.00
2024-01-30T18:21:43.255Z,10.00
2024-01-30T18:24:11.206Z,10.00
2024-01-30T18:26:39.313Z,10.00
2024-01-30T18:29:09.213Z,10.00
2024-01-30T18:31:38.905Z,10.00
2024-01-30T18:34:07.003Z,10.00
2024-01-30T18:36:37.990Z,10.00
2024-01-30T18:39:06.657Z,10.00
2024-01-30T18:41:34.615Z,10.00
2024-01-30T18:44:03.481Z,9.90
2024-01-30T18:46:32.947Z,10.00
2024-01-30T18:49:01.189Z,10.00
2024-01-30T18:51:29.227Z,10.00
2024-01-30T18:53:57.132Z,10.00
2024-01-30T18:56:27.424Z,10.00
2024-01-30T18:58:55.363Z,10.00
2024-01-30T19:01:23.654Z,10.00
2024-01-30T19:03:53.295Z,10.00
2024-01-30T19:06:21.662Z,10.00
2024-01-30T19:08:49.619Z,10.00
2024-01-30T19:11:20.642Z,10.00
2024-01-30T19:13:48.792Z,10.10
2024-01-30T19:16:18.915Z,10.10
2024-01-30T19:18:50.250Z,10.10
2024-01-30T19:21:19.760Z,10.10
2024-01-30T19:23:47.697Z,10.10
2024-01-30T19:26:16.130Z,10.10
2024-01-30T19:28:44.119Z,10.10
2024-01-30T19:31:12.087Z,10.10
2024-01-30T19:33:40.066Z,10.10
2024-01-30T19:36:08.540Z,10.20
2024-01-30T19:38:37.896Z,10.20
2024-01-30T19:41:06.866Z,10.20
2024-01-30T19:43:35.015Z,10.20
2024-01-30T19:46:03.090Z,10.20
2024-01-30T19:48:31.070Z,10.20
2024-01-30T19:50:59.060Z,10.20
2024-01-30T19:53:27.085Z,10.20
2024-01-30T19:55:56.479Z,10.30
2024-01-30T19:58:24.508Z,10.30
2024-01-30T20:00:55.174Z,10.30
2024-01-30T20:03:23.139Z,10.30
2024-01-30T20:05:51.407Z,10.30
2024-01-30T20:08:19.382Z,10.30
2024-01-30T20:10:47.436Z,10.30
2024-01-30T20:13:16.879Z,10.40
2024-01-30T20:15:44.966Z,10.40
2024-01-30T20:18:12.966Z,10.40
2024-01-30T20:20:41.838Z,10.30
2024-01-30T20:23:10.358Z,10.30
2024-01-30T20:25:38.418Z,10.40
2024-01-30T20:28:06.826Z,10.40
2024-01-30T20:30:38.559Z,10.40
2024-01-30T20:33:15.310Z,10.40
2024-01-30T20:35:43.529Z,10.30
2024-01-30T20:38:11.496Z,10.30
2024-01-30T20:40:39.511Z,10.30
2024-01-30T20:43:51.500Z,10.30
2024-01-30T20:46:20.812Z,10.30
2024-01-30T20:48:48.808Z,10.30
2024-01-30T20:51:16.844Z,10.30
2024-01-30T20:53:46.057Z,10.30
2024-01-30T20:56:14.536Z,10.30
2024-01-30T20:58:42.543Z,10.30
2024-01-30T21:01:10.742Z,10.30
2024-01-30T21:03:40.872Z,10.30
2024-01-30T21:06:09.774Z,10.30
2024-01-30T21:08:38.163Z,10.30
2024-01-30T21:11:07.363Z,10.30
2024-01-30T21:13:35.293Z,10.30
2024-01-30T21:16:03.246Z,10.30
2024-01-30T21:18:31.197Z,10.30
2024-01-30T21:21:00.796Z,10.30
2024-01-30T21:23:32.192Z,10.30
2024-01-30T21:26:00.315Z,10.30
2024-01-30T21:28:30.848Z,10.20
2024-01-30T21:30:58.870Z,10.30
2024-01-30T21:33:26.982Z,10.30
2024-01-30T21:35:56.792Z,10.30
2024-01-30T21:38:30.125Z,10.30
2024-01-30T21:40:58.132Z,10.20
2024-01-30T21:43:26.614Z,10.30
2024-01-30T21:45:54.570Z,10.30
2024-01-30T21:48:22.553Z,10.40
2024-01-30T21:50:50.877Z,10.40
2024-01-30T21:53:18.834Z,10.40
2024-01-30T21:55:50.746Z,10.40
2024-01-30T21:58:18.730Z,10.40
2024-01-30T22:00:46.698Z,10.30
2024-01-30T22:03:16.139Z,10.30
2024-01-30T22:05:44.343Z,10.40
2024-01-30T22:08:12.288Z,10.30
2024-01-30T22:10:40.481Z,10.30
2024-01-30T22:13:10.321Z,10.30
2024-01-30T22:15:39.444Z,10.30
2024-01-30T22:18:07.777Z,10.30
2024-01-30T22:20:35.846Z,10.40
2024-01-30T22:23:03.929Z,10.30
2024-01-30T22:25:31.919Z,10.30
2024-01-30T22:27:59.978Z,10.30
2024-01-30T22:30:29.293Z,10.30
2024-01-30T22:32:59.634Z,10.30
2024-01-30T22:35:27.616Z,10.20
2024-01-30T22:37:55.614Z,10.20
2024-01-30T22:40:23.896Z,10.20
2024-01-30T22:42:51.970Z,10.20
2024-01-30T22:45:19.958Z,10.20
2024-01-30T22:47:50.314Z,10.20
2024-01-30T22:50:18.365Z,10.30
2024-01-30T22:52:47.369Z,10.30
2024-01-30T22:55:15.438Z,10.20
2024-01-30T22:57:43.352Z,10.20
2024-01-30T23:00:15.900Z,10.20
2024-01-30T23:02:46.450Z,10.20
2024-01-30T23:05:15.869Z,10.10
2024-01-30T23:07:43.990Z,10.20
2024-01-30T23:10:12.205Z,10.20
2024-01-30T23:12:40.267Z,10.20
2024-01-30T23:15:08.710Z,10.20
2024-01-30T23:17:36.912Z,10.20
2024-01-30T23:20:05.932Z,10.20
2024-01-30T23:22:36.074Z,10.20
2024-01-30T23:25:04.227Z,10.20
2024-01-30T23:27:32.220Z,10.10
2024-01-30T23:30:00.202Z,10.20
2024-01-30T23:32:34.915Z,10.20
2024-01-30T23:35:09.906Z,10.20
2024-01-30T23:37:40.531Z,10.10
2024-01-30T23:40:10.953Z,10.10
2024-01-30T23:42:38.887Z,10.10
2024-01-30T23:45:07.220Z,10.10
2024-01-30T23:47:35.235Z,10.10
2024-01-30T23:50:03.512Z,10.10
2024-01-30T23:52:34.123Z,10.20
2024-01-30T23:55:04.220Z,10.20
2024-01-30T23:57:32.520Z,10.20
